sensor_id;sensor_type;location;lat;lon;timestamp;P1;durP1;ratioP1;P2;durP2;ratioP2
48052;SDS011;33824;51.600;5.718;2023-05-07T00:00:22;1.40;;;1.00;;
48052;SDS011;33824;51.600;5.718;2023-05-07T00:03:08;1.27;;;0.95;;
48052;SDS011;33824;51.600;5.718;2023-05-07T00:05:33;2.22;;;1.45;;
48052;SDS011;33824;51.600;5.718;2023-05-07T00:08:02;1.70;;;1.02;;
48052;SDS011;33824;51.600;5.718;2023-05-07T00:10:27;2.60;;;1.20;;
48052;SDS011;33824;51.600;5.718;2023-05-07T00:12:53;1.65;;;0.95;;
48052;SDS011;33824;51.600;5.718;2023-05-07T00:15:18;1.70;;;1.25;;
48052;SDS011;33824;51.600;5.718;2023-05-07T00:17:44;1.35;;;1.10;;
48052;SDS011;33824;51.600;5.718;2023-05-07T00:20:10;2.05;;;1.45;;
48052;SDS011;33824;51.600;5.718;2023-05-07T00:22:36;2.78;;;1.50;;
48052;SDS011;33824;51.600;5.718;2023-05-07T00:25:02;2.50;;;1.15;;
48052;SDS011;33824;51.600;5.718;2023-05-07T00:27:27;2.40;;;1.20;;
48052;SDS011;33824;51.600;5.718;2023-05-07T00:29:53;3.05;;;1.73;;
48052;SDS011;33824;51.600;5.718;2023-05-07T00:32:18;3.58;;;1.42;;
48052;SDS011;33824;51.600;5.718;2023-05-07T00:34:44;2.35;;;1.20;;
48052;SDS011;33824;51.600;5.718;2023-05-07T00:37:10;1.65;;;1.10;;
48052;SDS011;33824;51.600;5.718;2023-05-07T00:39:37;1.77;;;1.20;;
48052;SDS011;33824;51.600;5.718;2023-05-07T00:42:03;3.97;;;1.45;;
48052;SDS011;33824;51.600;5.718;2023-05-07T00:44:29;2.17;;;1.35;;
48052;SDS011;33824;51.600;5.718;2023-05-07T00:46:55;2.08;;;1.20;;
48052;SDS011;33824;51.600;5.718;2023-05-07T00:49:22;1.10;;;1.00;;
48052;SDS011;33824;51.600;5.718;2023-05-07T00:51:49;3.20;;;1.35;;
48052;SDS011;33824;51.600;5.718;2023-05-07T00:54:15;1.73;;;1.40;;
48052;SDS011;33824;51.600;5.718;2023-05-07T00:56:40;2.00;;;1.40;;
48052;SDS011;33824;51.600;5.718;2023-05-07T00:59:06;2.42;;;1.27;;
48052;SDS011;33824;51.600;5.718;2023-05-07T01:01:32;2.25;;;1.40;;
48052;SDS011;33824;51.600;5.718;2023-05-07T01:03:57;2.40;;;1.42;;
48052;SDS011;33824;51.600;5.718;2023-05-07T01:06:23;1.52;;;1.27;;
48052;SDS011;33824;51.600;5.718;2023-05-07T01:08:53;1.77;;;1.20;;
48052;SDS011;33824;51.600;5.718;2023-05-07T01:11:21;2.17;;;1.50;;
48052;SDS011;33824;51.600;5.718;2023-05-07T01:13:48;2.60;;;1.60;;
48052;SDS011;33824;51.600;5.718;2023-05-07T01:16:15;2.05;;;1.38;;
48052;SDS011;33824;51.600;5.718;2023-05-07T01:18:41;1.70;;;1.35;;
48052;SDS011;33824;51.600;5.718;2023-05-07T01:21:06;2.28;;;1.48;;
48052;SDS011;33824;51.600;5.718;2023-05-07T01:23:36;1.50;;;1.23;;
48052;SDS011;33824;51.600;5.718;2023-05-07T01:26:02;3.08;;;1.73;;
48052;SDS011;33824;51.600;5.718;2023-05-07T01:28:28;5.10;;;1.95;;
48052;SDS011;33824;51.600;5.718;2023-05-07T01:30:55;2.35;;;1.38;;
48052;SDS011;33824;51.600;5.718;2023-05-07T01:33:26;2.33;;;1.40;;
48052;SDS011;33824;51.600;5.718;2023-05-07T01:35:56;2.00;;;1.45;;
48052;SDS011;33824;51.600;5.718;2023-05-07T01:38:25;2.00;;;1.40;;
48052;SDS011;33824;51.600;5.718;2023-05-07T01:40:52;2.33;;;1.67;;
48052;SDS011;33824;51.600;5.718;2023-05-07T01:43:18;2.53;;;1.60;;
48052;SDS011;33824;51.600;5.718;2023-05-07T01:45:44;2.83;;;1.88;;
48052;SDS011;33824;51.600;5.718;2023-05-07T01:48:11;2.60;;;1.92;;
48052;SDS011;33824;51.600;5.718;2023-05-07T01:50:39;2.95;;;2.00;;
48052;SDS011;33824;51.600;5.718;2023-05-07T01:53:04;2.63;;;1.83;;
48052;SDS011;33824;51.600;5.718;2023-05-07T01:55:30;4.00;;;2.05;;
48052;SDS011;33824;51.600;5.718;2023-05-07T01:57:56;3.35;;;1.90;;
48052;SDS011;33824;51.600;5.718;2023-05-07T02:00:21;3.38;;;1.70;;
48052;SDS011;33824;51.600;5.718;2023-05-07T02:02:47;3.90;;;2.08;;
48052;SDS011;33824;51.600;5.718;2023-05-07T02:05:13;4.15;;;2.40;;
48052;SDS011;33824;51.600;5.718;2023-05-07T02:07:39;2.80;;;1.77;;
48052;SDS011;33824;51.600;5.718;2023-05-07T02:10:04;3.40;;;1.83;;
48052;SDS011;33824;51.600;5.718;2023-05-07T02:12:30;2.47;;;2.03;;
48052;SDS011;33824;51.600;5.718;2023-05-07T02:14:56;7.47;;;2.13;;
48052;SDS011;33824;51.600;5.718;2023-05-07T02:17:21;2.60;;;1.98;;
48052;SDS011;33824;51.600;5.718;2023-05-07T02:19:47;3.53;;;2.25;;
48052;SDS011;33824;51.600;5.718;2023-05-07T02:22:12;4.85;;;2.70;;
48052;SDS011;33824;51.600;5.718;2023-05-07T02:24:38;3.45;;;2.50;;
48052;SDS011;33824;51.600;5.718;2023-05-07T02:27:03;7.78;;;2.38;;
48052;SDS011;33824;51.600;5.718;2023-05-07T02:29:29;4.60;;;2.20;;
48052;SDS011;33824;51.600;5.718;2023-05-07T02:31:55;4.22;;;2.35;;
48052;SDS011;33824;51.600;5.718;2023-05-07T02:34:20;4.38;;;2.40;;
48052;SDS011;33824;51.600;5.718;2023-05-07T02:36:46;4.15;;;2.72;;
48052;SDS011;33824;51.600;5.718;2023-05-07T02:39:12;4.68;;;2.80;;
48052;SDS011;33824;51.600;5.718;2023-05-07T02:41:38;3.92;;;2.38;;
48052;SDS011;33824;51.600;5.718;2023-05-07T02:44:04;4.65;;;2.90;;
48052;SDS011;33824;51.600;5.718;2023-05-07T02:46:30;4.32;;;2.95;;
48052;SDS011;33824;51.600;5.718;2023-05-07T02:48:56;5.03;;;2.72;;
48052;SDS011;33824;51.600;5.718;2023-05-07T02:51:22;2.60;;;2.25;;
48052;SDS011;33824;51.600;5.718;2023-05-07T02:53:48;3.65;;;2.90;;
48052;SDS011;33824;51.600;5.718;2023-05-07T02:56:14;2.95;;;2.50;;
48052;SDS011;33824;51.600;5.718;2023-05-07T02:58:40;3.13;;;2.47;;
48052;SDS011;33824;51.600;5.718;2023-05-07T03:01:05;4.90;;;3.05;;
48052;SDS011;33824;51.600;5.718;2023-05-07T03:03:31;4.75;;;2.83;;
48052;SDS011;33824;51.600;5.718;2023-05-07T03:05:57;3.58;;;2.72;;
48052;SDS011;33824;51.600;5.718;2023-05-07T03:08:22;6.28;;;2.85;;
48052;SDS011;33824;51.600;5.718;2023-05-07T03:10:48;3.67;;;2.67;;
48052;SDS011;33824;51.600;5.718;2023-05-07T03:13:14;4.32;;;3.08;;
48052;SDS011;33824;51.600;5.718;2023-05-07T03:15:40;4.57;;;2.90;;
48052;SDS011;33824;51.600;5.718;2023-05-07T03:18:05;5.22;;;3.03;;
48052;SDS011;33824;51.600;5.718;2023-05-07T03:20:33;3.85;;;2.60;;
48052;SDS011;33824;51.600;5.718;2023-05-07T03:22:59;4.80;;;2.88;;
48052;SDS011;33824;51.600;5.718;2023-05-07T03:25:25;4.72;;;3.10;;
48052;SDS011;33824;51.600;5.718;2023-05-07T03:27:51;5.63;;;2.78;;
48052;SDS011;33824;51.600;5.718;2023-05-07T03:30:16;5.57;;;3.08;;
48052;SDS011;33824;51.600;5.718;2023-05-07T03:32:42;4.88;;;3.22;;
48052;SDS011;33824;51.600;5.718;2023-05-07T03:35:08;4.30;;;2.80;;
48052;SDS011;33824;51.600;5.718;2023-05-07T03:37:33;5.55;;;3.40;;
48052;SDS011;33824;51.600;5.718;2023-05-07T03:39:59;4.32;;;3.17;;
48052;SDS011;33824;51.600;5.718;2023-05-07T03:42:24;5.07;;;3.55;;
48052;SDS011;33824;51.600;5.718;2023-05-07T03:44:50;4.80;;;2.90;;
48052;SDS011;33824;51.600;5.718;2023-05-07T03:47:16;4.38;;;3.28;;
48052;SDS011;33824;51.600;5.718;2023-05-07T03:49:41;6.55;;;3.65;;
48052;SDS011;33824;51.600;5.718;2023-05-07T03:52:08;6.07;;;3.00;;
48052;SDS011;33824;51.600;5.718;2023-05-07T03:54:33;7.45;;;3.75;;
48052;SDS011;33824;51.600;5.718;2023-05-07T03:56:59;4.20;;;3.30;;
48052;SDS011;33824;51.600;5.718;2023-05-07T03:59:24;5.13;;;3.70;;
48052;SDS011;33824;51.600;5.718;2023-05-07T04:01:50;5.97;;;3.67;;
48052;SDS011;33824;51.600;5.718;2023-05-07T04:04:16;4.88;;;3.40;;
48052;SDS011;33824;51.600;5.718;2023-05-07T04:06:41;4.68;;;3.40;;
48052;SDS011;33824;51.600;5.718;2023-05-07T04:09:07;5.25;;;3.67;;
48052;SDS011;33824;51.600;5.718;2023-05-07T04:11:33;5.97;;;3.72;;
48052;SDS011;33824;51.600;5.718;2023-05-07T04:13:59;4.82;;;3.65;;
48052;SDS011;33824;51.600;5.718;2023-05-07T04:16:24;5.10;;;3.70;;
48052;SDS011;33824;51.600;5.718;2023-05-07T04:18:50;5.93;;;3.70;;
48052;SDS011;33824;51.600;5.718;2023-05-07T04:21:18;8.15;;;4.75;;
48052;SDS011;33824;51.600;5.718;2023-05-07T04:23:48;6.35;;;3.83;;
48052;SDS011;33824;51.600;5.718;2023-05-07T04:26:14;5.65;;;4.22;;
48052;SDS011;33824;51.600;5.718;2023-05-07T04:28:41;7.03;;;4.32;;
48052;SDS011;33824;51.600;5.718;2023-05-07T04:31:07;6.35;;;4.32;;
48052;SDS011;33824;51.600;5.718;2023-05-07T04:33:33;6.20;;;3.90;;
48052;SDS011;33824;51.600;5.718;2023-05-07T04:36:02;5.22;;;4.00;;
48052;SDS011;33824;51.600;5.718;2023-05-07T04:38:32;7.03;;;4.00;;
48052;SDS011;33824;51.600;5.718;2023-05-07T04:40:58;7.03;;;4.28;;
48052;SDS011;33824;51.600;5.718;2023-05-07T04:43:28;6.23;;;3.93;;
48052;SDS011;33824;51.600;5.718;2023-05-07T04:45:53;6.55;;;4.50;;
48052;SDS011;33824;51.600;5.718;2023-05-07T04:48:19;6.45;;;4.43;;
48052;SDS011;33824;51.600;5.718;2023-05-07T04:50:48;4.97;;;3.90;;
48052;SDS011;33824;51.600;5.718;2023-05-07T04:53:15;6.72;;;4.25;;
48052;SDS011;33824;51.600;5.718;2023-05-07T04:55:40;7.57;;;4.43;;
48052;SDS011;33824;51.600;5.718;2023-05-07T04:58:08;6.70;;;4.28;;
48052;SDS011;33824;51.600;5.718;2023-05-07T05:00:34;7.07;;;4.13;;
48052;SDS011;33824;51.600;5.718;2023-05-07T05:02:59;6.32;;;4.35;;
48052;SDS011;33824;51.600;5.718;2023-05-07T05:05:25;6.18;;;4.60;;
48052;SDS011;33824;51.600;5.718;2023-05-07T05:07:51;6.47;;;4.60;;
48052;SDS011;33824;51.600;5.718;2023-05-07T05:10:17;7.07;;;4.93;;
48052;SDS011;33824;51.600;5.718;2023-05-07T05:12:43;7.05;;;5.10;;
48052;SDS011;33824;51.600;5.718;2023-05-07T05:15:08;7.65;;;5.05;;
48052;SDS011;33824;51.600;5.718;2023-05-07T05:17:35;8.02;;;4.70;;
48052;SDS011;33824;51.600;5.718;2023-05-07T05:20:01;7.00;;;4.85;;
48052;SDS011;33824;51.600;5.718;2023-05-07T05:22:27;7.65;;;4.57;;
48052;SDS011;33824;51.600;5.718;2023-05-07T05:24:54;7.47;;;4.65;;
48052;SDS011;33824;51.600;5.718;2023-05-07T05:27:20;6.38;;;4.50;;
48052;SDS011;33824;51.600;5.718;2023-05-07T05:29:46;7.50;;;4.88;;
48052;SDS011;33824;51.600;5.718;2023-05-07T05:32:12;6.63;;;4.57;;
48052;SDS011;33824;51.600;5.718;2023-05-07T05:34:37;6.43;;;4.75;;
48052;SDS011;33824;51.600;5.718;2023-05-07T05:37:03;6.07;;;4.68;;
48052;SDS011;33824;51.600;5.718;2023-05-07T05:39:28;7.43;;;4.57;;
48052;SDS011;33824;51.600;5.718;2023-05-07T05:41:54;6.97;;;4.72;;
48052;SDS011;33824;51.600;5.718;2023-05-07T05:44:19;7.95;;;5.20;;
48052;SDS011;33824;51.600;5.718;2023-05-07T05:46:45;6.55;;;4.50;;
48052;SDS011;33824;51.600;5.718;2023-05-07T05:49:10;6.63;;;4.75;;
48052;SDS011;33824;51.600;5.718;2023-05-07T05:51:36;10.02;;;5.38;;
48052;SDS011;33824;51.600;5.718;2023-05-07T05:54:01;7.15;;;4.47;;
48052;SDS011;33824;51.600;5.718;2023-05-07T05:56:28;7.05;;;4.55;;
48052;SDS011;33824;51.600;5.718;2023-05-07T05:58:54;6.13;;;4.60;;
48052;SDS011;33824;51.600;5.718;2023-05-07T06:01:19;7.45;;;4.82;;
48052;SDS011;33824;51.600;5.718;2023-05-07T06:03:48;6.25;;;4.60;;
48052;SDS011;33824;51.600;5.718;2023-05-07T06:06:14;8.55;;;4.80;;
48052;SDS011;33824;51.600;5.718;2023-05-07T06:08:39;7.18;;;5.03;;
48052;SDS011;33824;51.600;5.718;2023-05-07T06:11:05;6.95;;;4.97;;
48052;SDS011;33824;51.600;5.718;2023-05-07T06:13:30;6.95;;;4.95;;
48052;SDS011;33824;51.600;5.718;2023-05-07T06:15:56;6.22;;;4.35;;
48052;SDS011;33824;51.600;5.718;2023-05-07T06:18:22;6.93;;;3.97;;
48052;SDS011;33824;51.600;5.718;2023-05-07T06:20:47;5.90;;;4.53;;
48052;SDS011;33824;51.600;5.718;2023-05-07T06:23:13;10.93;;;5.60;;
48052;SDS011;33824;51.600;5.718;2023-05-07T06:25:39;6.40;;;4.18;;
48052;SDS011;33824;51.600;5.718;2023-05-07T06:28:05;5.05;;;3.92;;
48052;SDS011;33824;51.600;5.718;2023-05-07T06:30:31;6.63;;;4.68;;
48052;SDS011;33824;51.600;5.718;2023-05-07T06:32:56;6.55;;;4.35;;
48052;SDS011;33824;51.600;5.718;2023-05-07T06:35:22;6.75;;;4.47;;
48052;SDS011;33824;51.600;5.718;2023-05-07T06:37:47;7.15;;;4.65;;
48052;SDS011;33824;51.600;5.718;2023-05-07T06:40:13;5.90;;;4.07;;
48052;SDS011;33824;51.600;5.718;2023-05-07T06:42:38;6.72;;;5.07;;
48052;SDS011;33824;51.600;5.718;2023-05-07T06:45:04;8.63;;;4.90;;
48052;SDS011;33824;51.600;5.718;2023-05-07T06:47:30;5.82;;;4.35;;
48052;SDS011;33824;51.600;5.718;2023-05-07T06:49:56;8.02;;;4.75;;
48052;SDS011;33824;51.600;5.718;2023-05-07T06:52:21;6.43;;;3.78;;
48052;SDS011;33824;51.600;5.718;2023-05-07T06:54:47;6.13;;;4.05;;
48052;SDS011;33824;51.600;5.718;2023-05-07T06:57:12;6.95;;;4.50;;
48052;SDS011;33824;51.600;5.718;2023-05-07T06:59:38;8.40;;;4.55;;
48052;SDS011;33824;51.600;5.718;2023-05-07T07:02:03;5.38;;;3.92;;
48052;SDS011;33824;51.600;5.718;2023-05-07T07:04:29;8.07;;;4.93;;
48052;SDS011;33824;51.600;5.718;2023-05-07T07:06:57;7.00;;;4.53;;
48052;SDS011;33824;51.600;5.718;2023-05-07T07:09:23;7.10;;;4.30;;
48052;SDS011;33824;51.600;5.718;2023-05-07T07:11:48;6.82;;;4.55;;
48052;SDS011;33824;51.600;5.718;2023-05-07T07:14:14;6.30;;;4.10;;
48052;SDS011;33824;51.600;5.718;2023-05-07T07:16:40;5.10;;;3.47;;
48052;SDS011;33824;51.600;5.718;2023-05-07T07:19:06;5.75;;;3.97;;
48052;SDS011;33824;51.600;5.718;2023-05-07T07:21:31;6.78;;;4.05;;
48052;SDS011;33824;51.600;5.718;2023-05-07T07:23:57;7.10;;;4.40;;
48052;SDS011;33824;51.600;5.718;2023-05-07T07:26:23;6.95;;;3.83;;
48052;SDS011;33824;51.600;5.718;2023-05-07T07:28:48;6.72;;;4.00;;
48052;SDS011;33824;51.600;5.718;2023-05-07T07:31:14;6.38;;;4.07;;
48052;SDS011;33824;51.600;5.718;2023-05-07T07:33:40;8.02;;;4.60;;
48052;SDS011;33824;51.600;5.718;2023-05-07T07:36:06;7.80;;;3.75;;
48052;SDS011;33824;51.600;5.718;2023-05-07T07:38:32;6.47;;;3.85;;
48052;SDS011;33824;51.600;5.718;2023-05-07T07:40:58;4.82;;;3.72;;
48052;SDS011;33824;51.600;5.718;2023-05-07T07:43:24;5.65;;;4.03;;
48052;SDS011;33824;51.600;5.718;2023-05-07T07:45:49;5.82;;;3.70;;
48052;SDS011;33824;51.600;5.718;2023-05-07T07:48:15;7.60;;;4.03;;
48052;SDS011;33824;51.600;5.718;2023-05-07T07:50:40;6.00;;;3.80;;
48052;SDS011;33824;51.600;5.718;2023-05-07T07:53:06;7.60;;;4.38;;
48052;SDS011;33824;51.600;5.718;2023-05-07T07:55:32;6.88;;;4.00;;
48052;SDS011;33824;51.600;5.718;2023-05-07T07:57:57;5.55;;;3.47;;
48052;SDS011;33824;51.600;5.718;2023-05-07T08:00:23;7.25;;;3.90;;
48052;SDS011;33824;51.600;5.718;2023-05-07T08:02:48;6.00;;;4.20;;
48052;SDS011;33824;51.600;5.718;2023-05-07T08:05:14;5.55;;;3.92;;
48052;SDS011;33824;51.600;5.718;2023-05-07T08:07:42;5.32;;;4.05;;
48052;SDS011;33824;51.600;5.718;2023-05-07T08:10:08;7.43;;;4.47;;
48052;SDS011;33824;51.600;5.718;2023-05-07T08:12:34;8.38;;;4.40;;
48052;SDS011;33824;51.600;5.718;2023-05-07T08:15:00;6.05;;;3.92;;
48052;SDS011;33824;51.600;5.718;2023-05-07T08:17:25;10.85;;;4.97;;
48052;SDS011;33824;51.600;5.718;2023-05-07T08:19:51;6.78;;;4.50;;
48052;SDS011;33824;51.600;5.718;2023-05-07T08:22:16;6.90;;;4.68;;
48052;SDS011;33824;51.600;5.718;2023-05-07T08:24:43;8.43;;;4.30;;
48052;SDS011;33824;51.600;5.718;2023-05-07T08:27:09;6.93;;;4.32;;
48052;SDS011;33824;51.600;5.718;2023-05-07T08:29:34;7.20;;;4.30;;
48052;SDS011;33824;51.600;5.718;2023-05-07T08:32:00;5.57;;;4.00;;
48052;SDS011;33824;51.600;5.718;2023-05-07T08:34:25;5.63;;;3.92;;
48052;SDS011;33824;51.600;5.718;2023-05-07T08:36:51;6.80;;;4.63;;
48052;SDS011;33824;51.600;5.718;2023-05-07T08:39:16;6.90;;;4.10;;
48052;SDS011;33824;51.600;5.718;2023-05-07T08:41:45;5.95;;;4.10;;
48052;SDS011;33824;51.600;5.718;2023-05-07T08:44:13;6.30;;;4.20;;
48052;SDS011;33824;51.600;5.718;2023-05-07T08:46:39;5.20;;;3.90;;
48052;SDS011;33824;51.600;5.718;2023-05-07T08:49:06;6.65;;;4.20;;
48052;SDS011;33824;51.600;5.718;2023-05-07T08:51:33;7.22;;;4.25;;
48052;SDS011;33824;51.600;5.718;2023-05-07T08:53:59;7.35;;;4.47;;
48052;SDS011;33824;51.600;5.718;2023-05-07T08:56:26;7.60;;;4.75;;
48052;SDS011;33824;51.600;5.718;2023-05-07T08:58:52;7.57;;;4.93;;
48052;SDS011;33824;51.600;5.718;2023-05-07T09:01:21;5.30;;;3.85;;
48052;SDS011;33824;51.600;5.718;2023-05-07T09:03:47;4.95;;;3.92;;
48052;SDS011;33824;51.600;5.718;2023-05-07T09:06:13;7.18;;;4.72;;
48052;SDS011;33824;51.600;5.718;2023-05-07T09:08:39;7.50;;;4.28;;
48052;SDS011;33824;51.600;5.718;2023-05-07T09:11:09;6.35;;;4.05;;
48052;SDS011;33824;51.600;5.718;2023-05-07T09:13:38;6.18;;;3.90;;
48052;SDS011;33824;51.600;5.718;2023-05-07T09:16:10;7.82;;;3.67;;
48052;SDS011;33824;51.600;5.718;2023-05-07T09:18:40;6.75;;;4.25;;
48052;SDS011;33824;51.600;5.718;2023-05-07T09:21:11;6.63;;;4.57;;
48052;SDS011;33824;51.600;5.718;2023-05-07T09:23:37;6.35;;;4.10;;
48052;SDS011;33824;51.600;5.718;2023-05-07T09:26:03;6.53;;;4.30;;
48052;SDS011;33824;51.600;5.718;2023-05-07T09:28:29;9.10;;;3.97;;
48052;SDS011;33824;51.600;5.718;2023-05-07T09:30:55;5.57;;;3.78;;
48052;SDS011;33824;51.600;5.718;2023-05-07T09:33:21;7.95;;;4.15;;
48052;SDS011;33824;51.600;5.718;2023-05-07T09:35:47;5.45;;;3.90;;
48052;SDS011;33824;51.600;5.718;2023-05-07T09:38:16;6.53;;;3.78;;
48052;SDS011;33824;51.600;5.718;2023-05-07T09:40:45;5.93;;;3.88;;
48052;SDS011;33824;51.600;5.718;2023-05-07T09:43:11;5.40;;;4.00;;
48052;SDS011;33824;51.600;5.718;2023-05-07T09:45:39;5.57;;;3.58;;
48052;SDS011;33824;51.600;5.718;2023-05-07T09:48:06;7.30;;;4.05;;
48052;SDS011;33824;51.600;5.718;2023-05-07T09:50:35;4.85;;;3.38;;
48052;SDS011;33824;51.600;5.718;2023-05-07T09:53:01;5.18;;;3.40;;
48052;SDS011;33824;51.600;5.718;2023-05-07T09:55:29;6.80;;;3.70;;
48052;SDS011;33824;51.600;5.718;2023-05-07T09:57:55;4.78;;;2.97;;
48052;SDS011;33824;51.600;5.718;2023-05-07T10:00:21;5.03;;;3.63;;
48052;SDS011;33824;51.600;5.718;2023-05-07T10:02:48;6.07;;;3.58;;
48052;SDS011;33824;51.600;5.718;2023-05-07T10:05:20;5.68;;;3.70;;
48052;SDS011;33824;51.600;5.718;2023-05-07T10:07:47;7.38;;;4.03;;
48052;SDS011;33824;51.600;5.718;2023-05-07T10:10:13;5.35;;;3.28;;
48052;SDS011;33824;51.600;5.718;2023-05-07T10:12:41;7.72;;;3.90;;
48052;SDS011;33824;51.600;5.718;2023-05-07T10:15:10;7.05;;;3.72;;
48052;SDS011;33824;51.600;5.718;2023-05-07T10:17:37;6.15;;;4.10;;
48052;SDS011;33824;51.600;5.718;2023-05-07T10:20:04;6.68;;;3.92;;
48052;SDS011;33824;51.600;5.718;2023-05-07T10:22:41;5.30;;;3.63;;
48052;SDS011;33824;51.600;5.718;2023-05-07T10:25:26;6.53;;;3.58;;
48052;SDS011;33824;51.600;5.718;2023-05-07T10:27:55;6.50;;;3.17;;
48052;SDS011;33824;51.600;5.718;2023-05-07T10:33:13;6.13;;;3.53;;
48052;SDS011;33824;51.600;5.718;2023-05-07T10:35:43;6.03;;;3.72;;
48052;SDS011;33824;51.600;5.718;2023-05-07T10:38:10;5.93;;;3.25;;
48052;SDS011;33824;51.600;5.718;2023-05-07T10:40:36;5.47;;;3.45;;
48052;SDS011;33824;51.600;5.718;2023-05-07T10:43:02;6.18;;;3.88;;
48052;SDS011;33824;51.600;5.718;2023-05-07T10:45:32;5.85;;;3.78;;
48052;SDS011;33824;51.600;5.718;2023-05-07T10:48:13;5.40;;;3.80;;
48052;SDS011;33824;51.600;5.718;2023-05-07T10:50:43;5.32;;;3.42;;
48052;SDS011;33824;51.600;5.718;2023-05-07T10:55:43;4.72;;;3.15;;
48052;SDS011;33824;51.600;5.718;2023-05-07T10:58:29;4.70;;;3.28;;
48052;SDS011;33824;51.600;5.718;2023-05-07T11:01:01;3.88;;;3.10;;
48052;SDS011;33824;51.600;5.718;2023-05-07T11:03:28;6.18;;;3.42;;
48052;SDS011;33824;51.600;5.718;2023-05-07T11:06:13;5.20;;;2.45;;
48052;SDS011;33824;51.600;5.718;2023-05-07T11:11:17;5.18;;;3.47;;
48052;SDS011;33824;51.600;5.718;2023-05-07T11:13:44;10.25;;;3.90;;
48052;SDS011;33824;51.600;5.718;2023-05-07T11:16:24;5.68;;;3.72;;
48052;SDS011;33824;51.600;5.718;2023-05-07T11:18:54;5.40;;;3.15;;
48052;SDS011;33824;51.600;5.718;2023-05-07T11:21:33;5.70;;;2.72;;
48052;SDS011;33824;51.600;5.718;2023-05-07T11:24:01;3.55;;;2.40;;
48052;SDS011;33824;51.600;5.718;2023-05-07T11:26:29;3.42;;;2.60;;
48052;SDS011;33824;51.600;5.718;2023-05-07T11:28:56;2.58;;;1.95;;
48052;SDS011;33824;51.600;5.718;2023-05-07T11:31:23;5.22;;;2.75;;
48052;SDS011;33824;51.600;5.718;2023-05-07T11:33:54;4.20;;;2.97;;
48052;SDS011;33824;51.600;5.718;2023-05-07T11:36:21;4.18;;;2.67;;
48052;SDS011;33824;51.600;5.718;2023-05-07T11:38:48;4.50;;;2.55;;
48052;SDS011;33824;51.600;5.718;2023-05-07T11:41:15;9.63;;;3.58;;
48052;SDS011;33824;51.600;5.718;2023-05-07T11:43:58;4.85;;;2.60;;
48052;SDS011;33824;51.600;5.718;2023-05-07T11:46:25;3.50;;;2.45;;
48052;SDS011;33824;51.600;5.718;2023-05-07T11:48:52;4.80;;;2.55;;
48052;SDS011;33824;51.600;5.718;2023-05-07T11:51:18;4.53;;;2.90;;
48052;SDS011;33824;51.600;5.718;2023-05-07T11:53:45;7.20;;;2.95;;
48052;SDS011;33824;51.600;5.718;2023-05-07T11:56:11;6.72;;;3.38;;
48052;SDS011;33824;51.600;5.718;2023-05-07T11:58:38;5.13;;;3.28;;
48052;SDS011;33824;51.600;5.718;2023-05-07T12:01:07;5.97;;;3.17;;
48052;SDS011;33824;51.600;5.718;2023-05-07T12:03:34;5.95;;;3.17;;
48052;SDS011;33824;51.600;5.718;2023-05-07T12:06:01;4.57;;;3.08;;
48052;SDS011;33824;51.600;5.718;2023-05-07T12:08:27;5.00;;;2.78;;
48052;SDS011;33824;51.600;5.718;2023-05-07T12:10:53;6.38;;;2.67;;
48052;SDS011;33824;51.600;5.718;2023-05-07T12:13:20;5.78;;;2.63;;
48052;SDS011;33824;51.600;5.718;2023-05-07T12:15:50;4.82;;;3.05;;
48052;SDS011;33824;51.600;5.718;2023-05-07T12:18:16;6.20;;;3.40;;
48052;SDS011;33824;51.600;5.718;2023-05-07T12:20:42;6.63;;;2.60;;
48052;SDS011;33824;51.600;5.718;2023-05-07T12:23:08;3.35;;;2.10;;
48052;SDS011;33824;51.600;5.718;2023-05-07T12:25:34;4.10;;;2.28;;
48052;SDS011;33824;51.600;5.718;2023-05-07T12:28:01;4.15;;;2.25;;
48052;SDS011;33824;51.600;5.718;2023-05-07T12:30:29;6.40;;;2.53;;
48052;SDS011;33824;51.600;5.718;2023-05-07T12:32:54;4.45;;;2.33;;
48052;SDS011;33824;51.600;5.718;2023-05-07T12:35:30;4.85;;;2.60;;
48052;SDS011;33824;51.600;5.718;2023-05-07T12:38:07;4.50;;;2.45;;
48052;SDS011;33824;51.600;5.718;2023-05-07T12:40:37;3.15;;;2.15;;
48052;SDS011;33824;51.600;5.718;2023-05-07T12:43:08;4.88;;;2.85;;
48052;SDS011;33824;51.600;5.718;2023-05-07T12:45:41;4.93;;;2.45;;
48052;SDS011;33824;51.600;5.718;2023-05-07T12:48:09;4.22;;;2.55;;
48052;SDS011;33824;51.600;5.718;2023-05-07T12:50:35;5.05;;;2.67;;
48052;SDS011;33824;51.600;5.718;2023-05-07T12:53:02;6.45;;;2.70;;
48052;SDS011;33824;51.600;5.718;2023-05-07T12:55:31;5.40;;;2.60;;
48052;SDS011;33824;51.600;5.718;2023-05-07T12:57:57;3.83;;;2.55;;
48052;SDS011;33824;51.600;5.718;2023-05-07T13:00:38;4.68;;;2.45;;
48052;SDS011;33824;51.600;5.718;2023-05-07T13:03:04;6.03;;;2.85;;
48052;SDS011;33824;51.600;5.718;2023-05-07T13:05:31;3.65;;;2.25;;
48052;SDS011;33824;51.600;5.718;2023-05-07T13:07:57;5.68;;;2.67;;
48052;SDS011;33824;51.600;5.718;2023-05-07T13:10:24;4.38;;;2.65;;
48052;SDS011;33824;51.600;5.718;2023-05-07T13:12:50;4.78;;;2.83;;
48052;SDS011;33824;51.600;5.718;2023-05-07T13:15:16;4.43;;;2.83;;
48052;SDS011;33824;51.600;5.718;2023-05-07T13:17:42;4.43;;;2.85;;
48052;SDS011;33824;51.600;5.718;2023-05-07T13:20:11;5.60;;;2.38;;
48052;SDS011;33824;51.600;5.718;2023-05-07T13:22:40;2.97;;;2.17;;
48052;SDS011;33824;51.600;5.718;2023-05-07T13:25:06;4.47;;;2.20;;
48052;SDS011;33824;51.600;5.718;2023-05-07T13:27:32;8.68;;;2.50;;
48052;SDS011;33824;51.600;5.718;2023-05-07T13:30:02;4.25;;;2.42;;
48052;SDS011;33824;51.600;5.718;2023-05-07T13:32:29;0.75;;;0.57;;
48052;SDS011;33824;51.600;5.718;2023-05-07T13:34:55;1.23;;;0.60;;
48052;SDS011;33824;51.600;5.718;2023-05-07T13:37:21;1.08;;;0.50;;
48052;SDS011;33824;51.600;5.718;2023-05-07T13:39:46;1.65;;;0.50;;
48052;SDS011;33824;51.600;5.718;2023-05-07T13:42:12;1.85;;;0.40;;
48052;SDS011;33824;51.600;5.718;2023-05-07T13:44:37;0.85;;;0.50;;
48052;SDS011;33824;51.600;5.718;2023-05-07T13:47:03;0.82;;;0.55;;
48052;SDS011;33824;51.600;5.718;2023-05-07T13:49:28;1.40;;;0.70;;
48052;SDS011;33824;51.600;5.718;2023-05-07T13:51:54;0.52;;;0.38;;
48052;SDS011;33824;51.600;5.718;2023-05-07T13:54:20;0.88;;;0.40;;
48052;SDS011;33824;51.600;5.718;2023-05-07T13:56:45;0.60;;;0.30;;
48052;SDS011;33824;51.600;5.718;2023-05-07T13:59:11;0.60;;;0.60;;
48052;SDS011;33824;51.600;5.718;2023-05-07T14:01:39;2.30;;;0.30;;
48052;SDS011;33824;51.600;5.718;2023-05-07T14:04:05;0.30;;;0.30;;
48052;SDS011;33824;51.600;5.718;2023-05-07T14:06:30;0.85;;;0.50;;
48052;SDS011;33824;51.600;5.718;2023-05-07T14:08:56;1.13;;;0.50;;
48052;SDS011;33824;51.600;5.718;2023-05-07T14:11:23;1.85;;;0.55;;
48052;SDS011;33824;51.600;5.718;2023-05-07T14:13:48;0.98;;;0.50;;
48052;SDS011;33824;51.600;5.718;2023-05-07T14:16:14;1.90;;;0.85;;
48052;SDS011;33824;51.600;5.718;2023-05-07T14:18:40;2.40;;;0.57;;
48052;SDS011;33824;51.600;5.718;2023-05-07T14:21:05;3.22;;;0.43;;
48052;SDS011;33824;51.600;5.718;2023-05-07T14:23:35;1.88;;;0.73;;
48052;SDS011;33824;51.600;5.718;2023-05-07T14:26:00;1.90;;;0.55;;
48052;SDS011;33824;51.600;5.718;2023-05-07T14:28:26;2.50;;;0.60;;
48052;SDS011;33824;51.600;5.718;2023-05-07T14:30:51;0.32;;;0.30;;
48052;SDS011;33824;51.600;5.718;2023-05-07T14:33:17;0.40;;;0.40;;
48052;SDS011;33824;51.600;5.718;2023-05-07T14:35:42;1.20;;;0.52;;
48052;SDS011;33824;51.600;5.718;2023-05-07T14:38:13;1.63;;;0.45;;
48052;SDS011;33824;51.600;5.718;2023-05-07T14:40:38;0.95;;;0.40;;
48052;SDS011;33824;51.600;5.718;2023-05-07T14:43:04;2.33;;;0.60;;
48052;SDS011;33824;51.600;5.718;2023-05-07T14:45:29;0.98;;;0.60;;
48052;SDS011;33824;51.600;5.718;2023-05-07T14:47:55;2.25;;;0.75;;
48052;SDS011;33824;51.600;5.718;2023-05-07T14:50:20;1.05;;;0.43;;
48052;SDS011;33824;51.600;5.718;2023-05-07T14:52:46;1.40;;;0.50;;